Time;durP1;ratioP1;P1;durP2;ratioP2;P2;SDS_P1;SDS_P2;PMS_P1;PMS_P2;Temp;Humidity;BMP_temperature;BMP_pressure;BME280_temperature;BME280_humidity;BME280_pressure;Samples;Min_cycle;Max_cycle;Signal;HPM_P1;HPM_P2
2022/09/20 00:00:06;;;;;;;3.17;1.65;;;9.80;99.90;;;;;;5074711;28;20177;-74
2022/09/20 00:02:32;;;;;;;3.53;1.80;;;9.80;99.90;;;;;;5074771;28;20169;-74
2022/09/20 00:04:57;;;;;;;4.25;1.90;;;9.60;99.90;;;;;;5073928;28;20220;-74
2022/09/20 00:07:23;;;;;;;2.70;1.70;;;9.60;99.90;;;;;;5074101;28;20193;-74
2022/09/20 00:09:48;;;;;;;3.47;1.60;;;9.60;99.90;;;;;;5074766;28;20195;-74
2022/09/20 00:12:14;;;;;;;3.70;1.83;;;9.60;99.90;;;;;;5073911;28;20205;-74
2022/09/20 00:14:40;;;;;;;2.28;1.90;;;9.50;99.90;;;;;;5075226;28;20182;-74
2022/09/20 00:17:05;;;;;;;2.00;1.83;;;9.50;99.90;;;;;;5073667;28;20201;-74
2022/09/20 00:19:31;;;;;;;1.98;1.70;;;9.40;99.90;;;;;;5074858;28;20170;-74
2022/09/20 00:21:56;;;;;;;3.17;2.10;;;9.50;99.90;;;;;;5073907;28;20185;-74
2022/09/20 00:24:22;;;;;;;6.13;2.10;;;9.50;99.90;;;;;;5074894;28;20204;-74
2022/09/20 00:26:47;;;;;;;4.57;2.17;;;9.50;99.90;;;;;;5073531;28;20201;-74
2022/09/20 00:29:13;;;;;;;5.20;2.35;;;9.40;99.90;;;;;;5073779;28;20170;-74
2022/09/20 00:31:41;;;;;;;3.47;2.20;;;9.40;99.90;;;;;;5073910;28;20178;-75
2022/09/20 00:36:53;;;;;;;4.65;2.47;;;9.30;99.90;;;;;;5074872;28;20208;-75
2022/09/20 00:39:19;;;;;;;4.18;2.25;;;9.30;99.90;;;;;;5073159;28;20182;-75
2022/09/20 00:41:45;;;;;;;2.97;2.10;;;9.20;99.90;;;;;;5073432;28;20189;-75
2022/09/20 00:44:59;;;;;;;3.25;2.17;;;9.20;99.90;;;;;;5073463;28;20201;-74
2022/09/20 00:47:36;;;;;;;3.55;2.13;;;9.10;99.90;;;;;;5064490;28;20205;-74
2022/09/20 00:50:40;;;;;;;3.83;2.30;;;9.10;99.90;;;;;;5073034;28;20176;-74
2022/09/20 00:53:15;;;;;;;4.35;2.15;;;9.10;99.90;;;;;;5074462;28;20169;-74
2022/09/20 00:55:46;;;;;;;3.40;2.17;;;9.10;99.90;;;;;;5072953;28;20177;-74
2022/09/20 00:58:13;;;;;;;3.55;2.15;;;9.20;99.90;;;;;;5074486;28;20162;-74
2022/09/20 01:00:39;;;;;;;3.42;2.28;;;9.20;99.90;;;;;;5072961;28;20184;-74
2022/09/20 01:03:09;;;;;;;5.07;2.00;;;9.10;99.90;;;;;;5072785;28;20197;-74
2022/09/20 01:05:37;;;;;;;6.50;1.90;;;9.10;99.90;;;;;;5073893;28;20212;-74
2022/09/20 01:08:03;;;;;;;2.55;2.10;;;9.00;99.90;;;;;;5073089;28;20194;-74
2022/09/20 01:10:30;;;;;;;3.22;1.95;;;8.90;99.90;;;;;;5073291;28;20181;-74
2022/09/20 01:12:56;;;;;;;3.13;2.17;;;8.80;99.90;;;;;;5072704;28;20174;-74
2022/09/20 01:15:24;;;;;;;6.40;2.20;;;8.70;99.90;;;;;;5072594;28;20186;-74
2022/09/20 01:17:52;;;;;;;5.00;2.38;;;8.60;99.90;;;;;;5073768;28;20189;-74
2022/09/20 01:20:22;;;;;;;2.40;2.08;;;8.50;99.90;;;;;;5072531;28;20223;-74
2022/09/20 01:23:20;;;;;;;2.60;2.00;;;8.40;99.90;;;;;;5073685;28;20636;-74
2022/09/20 01:26:36;;;;;;;4.68;2.50;;;8.40;99.90;;;;;;5073669;28;20154;-74
2022/09/20 01:29:08;;;;;;;4.53;2.40;;;8.30;99.90;;;;;;5072558;28;20161;-74
2022/09/20 01:31:38;;;;;;;2.60;2.40;;;8.20;99.90;;;;;;5072799;28;20280;-74
2022/09/20 01:34:11;;;;;;;5.95;2.53;;;8.10;99.90;;;;;;5073656;28;20170;-74
2022/09/20 01:36:52;;;;;;;3.83;2.10;;;8.10;99.90;;;;;;5073824;28;20193;-74
2022/09/20 01:39:48;;;;;;;3.95;2.05;;;8.10;99.90;;;;;;5073224;28;20519;-74
2022/09/20 01:42:14;;;;;;;6.93;2.38;;;8.10;99.90;;;;;;5053484;28;20280;-74
2022/09/20 01:44:54;;;;;;;3.60;2.03;;;8.10;99.90;;;;;;5072203;28;20244;-74
2022/09/20 01:47:39;;;;;;;7.88;2.35;;;8.00;99.90;;;;;;5073139;28;20197;-74
2022/09/20 01:50:35;;;;;;;2.88;2.47;;;7.90;99.90;;;;;;5073123;28;20172;-74
2022/09/20 01:53:37;;;;;;;4.55;2.72;;;7.90;99.90;;;;;;5073909;28;20188;-74
2022/09/20 01:56:12;;;;;;;5.82;2.30;;;7.80;99.90;;;;;;5072359;28;20197;-74
2022/09/20 01:58:52;;;;;;;5.30;2.30;;;7.70;99.90;;;;;;5072381;28;20172;-74
2022/09/20 02:01:31;;;;;;;4.35;2.10;;;7.70;99.90;;;;;;5072976;28;20256;-74
2022/09/20 02:04:15;;;;;;;5.85;2.67;;;7.80;99.90;;;;;;5072235;28;20276;-74
2022/09/20 02:07:11;;;;;;;4.22;2.30;;;7.90;99.90;;;;;;5072835;28;20208;-74
2022/09/20 02:09:57;;;;;;;3.45;2.05;;;7.90;99.90;;;;;;5072175;28;20165;-74
2022/09/20 02:12:48;;;;;;;3.42;2.10;;;7.80;99.90;;;;;;5073492;28;20163;-74
2022/09/20 02:15:40;;;;;;;6.28;2.80;;;7.80;99.90;;;;;;5071917;28;20295;-74
2022/09/20 02:18:08;;;;;;;4.43;2.10;;;7.70;99.90;;;;;;5072068;28;20219;-74
2022/09/20 02:21:04;;;;;;;3.85;2.30;;;7.70;99.90;;;;;;5073385;28;20257;-74
2022/09/20 02:23:44;;;;;;;3.60;2.40;;;7.60;99.90;;;;;;5076454;28;20207;-74
2022/09/20 02:26:39;;;;;;;3.60;2.65;;;7.50;99.90;;;;;;5076651;28;20196;-74
2022/09/20 02:29:28;;;;;;;3.03;2.30;;;7.50;99.90;;;;;;5076669;28;20189;-74
2022/09/20 02:32:15;;;;;;;4.88;2.17;;;7.50;99.90;;;;;;5076965;28;20162;-74
2022/09/20 02:35:04;;;;;;;3.63;2.00;;;7.50;99.90;;;;;;5075659;28;20207;-74
2022/09/20 02:37:53;;;;;;;9.00;2.38;;;7.50;99.90;;;;;;5077055;28;20228;-74
2022/09/20 02:40:28;;;;;;;7.72;2.13;;;7.60;99.90;;;;;;5075589;28;20192;-74
2022/09/20 02:43:01;;;;;;;5.50;1.80;;;7.60;99.90;;;;;;5075448;28;20191;-74
2022/09/20 02:46:11;;;;;;;2.13;1.92;;;7.60;99.90;;;;;;5077196;28;20506;-74
2022/09/20 02:48:59;;;;;;;24.02;14.80;;;7.60;99.90;;;;;;5075636;28;20186;-74
2022/09/20 02:51:27;;;;;;;12.75;8.65;;;7.60;99.90;;;;;;5075376;28;20249;-74
2022/09/20 02:54:30;;;;;;;19.83;11.13;;;7.70;99.90;;;;;;5075297;28;20281;-74
2022/09/20 02:57:20;;;;;;;13.63;9.07;;;7.70;99.90;;;;;;5076043;28;20201;-74
2022/09/20 02:59:51;;;;;;;11.10;5.65;;;7.80;99.90;;;;;;5076565;28;20617;-74
2022/09/20 03:02:31;;;;;;;10.73;4.55;;;7.80;99.90;;;;;;5075177;28;20641;-74
2022/09/20 03:05:30;;;;;;;6.15;3.90;;;8.00;99.90;;;;;;5075156;28;20289;-74
2022/09/20 03:08:17;;;;;;;7.07;3.20;;;8.20;99.90;;;;;;5075220;28;20198;-74
2022/09/20 03:11:25;;;;;;;7.57;3.50;;;8.40;99.90;;;;;;5075737;28;20215;-74
2022/09/20 03:14:04;;;;;;;10.90;5.20;;;8.60;99.90;;;;;;5076012;28;20212;-74
2022/09/20 03:17:04;;;;;;;11.27;4.72;;;8.60;99.90;;;;;;5074984;28;20205;-74
2022/09/20 03:19:50;;;;;;;9.60;2.85;;;8.70;99.90;;;;;;5076331;28;20686;-74
2022/09/20 03:22:42;;;;;;;8.35;3.15;;;8.70;99.90;;;;;;5075662;28;20181;-74
2022/09/20 03:25:26;;;;;;;8.55;3.03;;;8.70;99.90;;;;;;5075995;28;20162;-74
2022/09/20 03:28:29;;;;;;;8.63;3.08;;;8.70;99.90;;;;;;5074694;28;20197;-74
2022/09/20 03:31:26;;;;;;;9.80;3.13;;;8.80;99.90;;;;;;5055973;28;20253;-74
2022/09/20 03:34:50;;;;;;;6.40;3.17;;;8.80;99.90;;;;;;5073884;28;20288;-74
2022/09/20 03:37:34;;;;;;;8.15;2.60;;;8.90;99.90;;;;;;5057033;28;20201;-74
2022/09/20 03:40:24;;;;;;;8.30;2.80;;;8.90;99.90;;;;;;5074582;28;20195;-74
2022/09/20 03:42:57;;;;;;;7.18;3.30;;;8.90;99.90;;;;;;5075836;28;20170;-74
2022/09/20 03:45:49;;;;;;;8.65;4.32;;;8.90;99.90;;;;;;5075673;28;20169;-74
2022/09/20 03:48:34;;;;;;;7.68;3.00;;;8.90;99.90;;;;;;5075219;28;20563;-74
2022/09/20 03:51:12;;;;;;;9.88;5.07;;;8.90;99.90;;;;;;5074500;28;20209;-74
2022/09/20 03:54:13;;;;;;;8.35;5.30;;;8.80;99.90;;;;;;5075420;28;20620;-74
2022/09/20 03:57:06;;;;;;;9.73;5.20;;;8.70;99.90;;;;;;5063249;28;20209;-74
2022/09/20 04:00:06;;;;;;;9.57;3.70;;;8.60;99.90;;;;;;5074165;28;20177;-74
2022/09/20 04:02:44;;;;;;;6.18;3.83;;;8.50;99.90;;;;;;5075558;28;20158;-74
2022/09/20 04:05:31;;;;;;;6.70;3.83;;;8.40;99.90;;;;;;5074007;28;20449;-75
2022/09/20 04:12:11;;;;;;;8.45;3.83;;;8.30;99.90;;;;;;5075345;28;20169;-74
2022/09/20 04:15:11;;;;;;;5.30;3.40;;;8.20;99.90;;;;;;5056829;28;20178;-74
2022/09/20 04:17:57;;;;;;;6.20;2.83;;;8.10;99.90;;;;;;5053658;28;20205;-74
2022/09/20 04:20:46;;;;;;;10.93;3.28;;;8.10;99.90;;;;;;5072166;28;20185;-74
2022/09/20 04:23:45;;;;;;;8.52;2.88;;;8.10;99.90;;;;;;5073602;28;20190;-73
2022/09/20 04:26:14;;;;;;;3.38;2.38;;;8.00;99.90;;;;;;5074212;28;20189;-74
2022/09/20 04:28:47;;;;;;;6.95;2.65;;;7.90;99.90;;;;;;5073532;28;20271;-80
2022/09/20 04:31:44;;;;;;;8.52;2.95;;;7.90;99.90;;;;;;5075119;28;20181;-73
2022/09/20 04:36:27;;;;;;;7.15;2.78;;;7.90;99.90;;;;;;5071576;28;20204;-74
2022/09/20 04:37:31;;;;;;;6.82;3.15;;;7.90;99.90;;;;;;5074299;28;20212;-74
2022/09/20 04:40:07;;;;;;;10.32;2.88;;;7.90;99.90;;;;;;5074105;28;20196;-75
2022/09/20 04:42:48;;;;;;;4.45;2.50;;;7.90;99.90;;;;;;5074161;28;20267;-75
2022/09/20 04:46:07;;;;;;;11.77;2.70;;;8.00;99.90;;;;;;5074629;28;20166;-74
2022/09/20 04:48:45;;;;;;;12.27;3.10;;;8.10;99.90;;;;;;5072487;28;20186;-74
2022/09/20 04:51:10;;;;;;;9.63;2.75;;;8.10;99.90;;;;;;5072323;28;20170;-81
2022/09/20 04:53:43;;;;;;;9.23;3.17;;;8.20;99.90;;;;;;5065623;28;20281;-74
2022/09/20 04:56:18;;;;;;;8.55;2.83;;;8.30;99.90;;;;;;5074231;28;20197;-74
2022/09/20 04:59:04;;;;;;;6.88;2.45;;;8.40;99.90;;;;;;5072967;28;20180;-74
2022/09/20 05:02:06;;;;;;;8.77;3.10;;;8.40;99.90;;;;;;5072895;28;20181;-74
2022/09/20 05:05:07;;;;;;;5.97;2.55;;;8.50;99.90;;;;;;5074297;28;20193;-74
2022/09/20 05:08:05;;;;;;;6.78;2.60;;;8.60;99.90;;;;;;5073949;28;20196;-74
2022/09/20 05:10:41;;;;;;;7.65;2.38;;;8.50;99.90;;;;;;5072695;28;20242;-74
2022/09/20 05:13:15;;;;;;;6.72;2.53;;;8.50;99.90;;;;;;5073828;28;20173;-74
2022/09/20 05:16:02;;;;;;;4.57;2.63;;;8.60;99.90;;;;;;5072815;28;20241;-74
2022/09/20 05:19:04;;;;;;;7.13;3.95;;;8.60;99.90;;;;;;5072622;28;20730;-74
2022/09/20 05:21:42;;;;;;;8.05;3.50;;;8.70;99.90;;;;;;5072584;28;20177;-74
2022/09/20 05:24:19;;;;;;;19.35;11.70;;;8.70;99.90;;;;;;5073276;28;20197;-74
2022/09/20 05:27:01;;;;;;;22.67;15.88;;;8.60;99.90;;;;;;5074038;28;20280;-73
2022/09/20 05:29:48;;;;;;;23.30;14.10;;;8.70;99.90;;;;;;5074218;28;20177;-74
2022/09/20 05:32:27;;;;;;;17.70;11.65;;;8.80;99.90;;;;;;5072342;28;20193;-74
2022/09/20 05:35:02;;;;;;;17.13;10.65;;;8.80;99.90;;;;;;5073596;28;20157;-75
2022/09/20 05:38:05;;;;;;;16.48;8.82;;;8.90;99.90;;;;;;5072711;28;20238;-74
2022/09/20 05:41:02;;;;;;;10.82;5.72;;;9.00;99.90;;;;;;5072982;28;20230;-74
2022/09/20 05:43:32;;;;;;;9.88;4.05;;;9.10;99.90;;;;;;5072131;28;20201;-74
2022/09/20 05:46:20;;;;;;;6.97;3.25;;;9.20;99.90;;;;;;5072065;28;20172;-74
2022/09/20 05:49:10;;;;;;;7.03;3.03;;;9.20;99.90;;;;;;5072825;28;20222;-74
2022/09/20 05:51:57;;;;;;;10.90;2.95;;;9.30;99.90;;;;;;5071822;28;20166;-81
2022/09/20 05:54:27;;;;;;;8.70;3.13;;;9.30;99.90;;;;;;5072271;28;20174;-74
2022/09/20 05:57:25;;;;;;;7.07;3.10;;;9.40;99.90;;;;;;5071253;28;20201;-74
2022/09/20 06:00:02;;;;;;;7.10;2.75;;;9.50;99.90;;;;;;5073209;28;20166;-81
2022/09/20 06:02:50;;;;;;;7.22;2.50;;;9.60;99.90;;;;;;5072956;28;20186;-74
2022/09/20 06:05:48;;;;;;;10.85;2.58;;;9.60;99.90;;;;;;5071928;28;20184;-74
2022/09/20 06:08:43;;;;;;;8.00;2.47;;;9.60;99.90;;;;;;5073317;28;20252;-74
2022/09/20 06:11:28;;;;;;;8.07;2.67;;;9.60;99.90;;;;;;5072296;28;20170;-74
2022/09/20 06:14:09;;;;;;;5.53;3.10;;;9.60;99.90;;;;;;5073199;28;20181;-74
2022/09/20 06:17:01;;;;;;;6.25;3.65;;;9.60;99.90;;;;;;5072183;28;20212;-74
2022/09/20 06:20:03;;;;;;;7.82;3.65;;;9.80;99.90;;;;;;5071973;28;20181;-74
2022/09/20 06:22:35;;;;;;;6.60;2.85;;;9.80;99.90;;;;;;5071562;28;20682;-74
2022/09/20 06:25:10;;;;;;;8.85;3.50;;;9.80;99.90;;;;;;5071827;28;20209;-74
2022/09/20 06:28:08;;;;;;;9.68;2.90;;;9.80;99.90;;;;;;5072856;28;20228;-74
2022/09/20 06:30:39;;;;;;;9.95;3.13;;;9.90;99.90;;;;;;5070731;28;20186;-74
2022/09/20 06:33:04;;;;;;;7.25;2.70;;;10.00;99.90;;;;;;5072185;28;20193;-74
2022/09/20 06:35:42;;;;;;;6.63;2.50;;;10.10;99.90;;;;;;5072923;28;20261;-74
2022/09/20 06:41:30;;;;;;;10.93;2.92;;;10.40;99.90;;;;;;5072888;28;20244;-74
2022/09/20 06:44:00;;;;;;;8.00;2.65;;;10.50;99.90;;;;;;5071562;28;20335;-74
2022/09/20 06:46:31;;;;;;;6.47;2.58;;;10.60;99.90;;;;;;5071435;28;20197;-76
2022/09/20 06:48:57;;;;;;;8.27;2.85;;;10.70;99.90;;;;;;5072238;28;20259;-75
2022/09/20 06:51:27;;;;;;;7.88;3.25;;;10.70;99.90;;;;;;5070838;28;20189;-74
2022/09/20 06:53:54;;;;;;;8.25;2.50;;;10.70;99.90;;;;;;5063015;28;20182;-74
2022/09/20 06:56:24;;;;;;;6.80;2.72;;;10.80;99.90;;;;;;5071178;28;20220;-74
2022/09/20 06:58:51;;;;;;;8.27;2.63;;;10.80;99.90;;;;;;5071423;28;20231;-74
2022/09/20 07:01:18;;;;;;;7.25;2.40;;;10.80;99.90;;;;;;5071404;28;20170;-74
2022/09/20 07:03:44;;;;;;;7.75;2.72;;;10.80;99.90;;;;;;5071338;28;20205;-74
2022/09/20 07:06:10;;;;;;;7.30;2.20;;;10.80;99.90;;;;;;5071469;28;20649;-74
2022/09/20 07:08:37;;;;;;;7.90;2.08;;;10.80;99.90;;;;;;5071869;28;20184;-74
2022/09/20 07:11:09;;;;;;;6.97;2.40;;;10.80;99.90;;;;;;5076434;28;20162;-74
2022/09/20 07:13:35;;;;;;;12.48;2.67;;;10.90;99.90;;;;;;5061573;28;20199;-74
2022/09/20 07:16:07;;;;;;;8.32;2.75;;;11.00;99.90;;;;;;5074359;28;20205;-75
2022/09/20 07:18:34;;;;;;;9.57;2.17;;;11.00;99.90;;;;;;5075023;28;20177;-75
2022/09/20 07:21:00;;;;;;;4.35;2.10;;;11.10;99.90;;;;;;5074904;28;20182;-75
2022/09/20 07:23:28;;;;;;;5.90;2.30;;;11.10;99.90;;;;;;5074587;28;20240;-74
2022/09/20 07:25:56;;;;;;;6.70;2.25;;;11.10;99.90;;;;;;5076043;28;20184;-74
2022/09/20 07:28:22;;;;;;;7.35;2.20;;;11.00;99.90;;;;;;5075808;28;20169;-76
2022/09/20 07:30:48;;;;;;;8.00;2.17;;;11.10;99.90;;;;;;5074812;28;20242;-75
2022/09/20 07:33:22;;;;;;;11.10;2.47;;;11.10;99.90;;;;;;5074766;28;20560;-75
2022/09/20 07:35:48;;;;;;;14.82;2.83;;;11.20;99.90;;;;;;5074769;28;20185;-75
2022/09/20 07:38:15;;;;;;;7.97;2.63;;;11.20;99.90;;;;;;5074326;28;20177;-75
2022/09/20 07:40:41;;;;;;;8.15;2.20;;;11.20;99.90;;;;;;5075464;28;20169;-75
2022/09/20 07:43:07;;;;;;;13.32;3.08;;;11.40;99.90;;;;;;5074558;28;20584;-76
2022/09/20 07:45:37;;;;;;;7.93;2.45;;;11.60;99.90;;;;;;5075661;28;20247;-75
2022/09/20 07:48:04;;;;;;;11.45;2.40;;;11.80;99.90;;;;;;5074352;28;20251;-75
2022/09/20 07:50:31;;;;;;;8.98;2.33;;;12.00;99.90;;;;;;5074067;28;20193;-75
2022/09/20 07:52:57;;;;;;;11.43;2.20;;;12.10;99.90;;;;;;5074402;28;20170;-75
2022/09/20 07:55:22;;;;;;;8.55;2.38;;;12.10;99.90;;;;;;5074376;28;20290;-74
2022/09/20 07:57:48;;;;;;;8.32;2.20;;;12.30;99.90;;;;;;5074590;28;20196;-76
2022/09/20 08:00:14;;;;;;;6.20;2.05;;;12.50;99.90;;;;;;5074362;28;20181;-75
2022/09/20 08:02:40;;;;;;;8.00;2.22;;;12.50;99.90;;;;;;5074478;28;20181;-75
2022/09/20 08:05:06;;;;;;;9.20;2.35;;;12.40;99.90;;;;;;5074276;28;20228;-74
2022/09/20 08:07:32;;;;;;;8.10;1.95;;;12.30;99.90;;;;;;5073768;28;20190;-75
2022/09/20 08:09:58;;;;;;;12.50;2.30;;;12.20;99.90;;;;;;5073597;28;20196;-74
2022/09/20 08:12:25;;;;;;;11.77;2.38;;;12.10;99.90;;;;;;5075241;28;20251;-74
2022/09/20 08:14:51;;;;;;;7.90;2.33;;;12.00;99.90;;;;;;5073563;28;20558;-74
2022/09/20 08:17:16;;;;;;;11.52;2.20;;;11.90;99.90;;;;;;5073985;28;20200;-75
2022/09/20 08:19:43;;;;;;;9.30;2.03;;;11.80;99.90;;;;;;5073419;28;20240;-74
2022/09/20 08:22:10;;;;;;;8.63;1.95;;;11.70;99.90;;;;;;5074765;28;20170;-74
2022/09/20 08:24:36;;;;;;;11.77;2.13;;;11.80;99.90;;;;;;5074579;28;20255;-74
2022/09/20 08:27:02;;;;;;;7.95;2.30;;;12.10;99.90;;;;;;5074805;28;20197;-75
2022/09/20 08:29:28;;;;;;;6.07;2.00;;;12.30;99.90;;;;;;5073753;28;20177;-75
2022/09/20 08:31:56;;;;;;;9.82;2.55;;;12.40;99.90;;;;;;5073254;28;20177;-75
2022/09/20 08:34:23;;;;;;;4.55;2.03;;;12.60;99.90;;;;;;5073737;28;20208;-75
2022/09/20 08:36:51;;;;;;;8.13;1.88;;;12.70;99.90;;;;;;5073161;28;20197;-74
2022/09/20 08:39:17;;;;;;;8.68;2.25;;;12.70;99.90;;;;;;5073269;28;20231;-74
2022/09/20 08:42:03;;;;;;;4.72;1.65;;;12.60;99.90;;;;;;5073419;28;20209;-75
2022/09/20 08:44:33;;;;;;;7.00;1.85;;;12.50;99.90;;;;;;5073019;28;20205;-75
2022/09/20 08:47:12;;;;;;;5.38;2.35;;;12.30;99.90;;;;;;5074447;28;20219;-75
2022/09/20 08:49:39;;;;;;;3.53;1.73;;;12.50;99.90;;;;;;5073034;28;20181;-75
2022/09/20 08:52:06;;;;;;;7.65;1.83;;;12.70;99.90;;;;;;5074038;28;20264;-75
2022/09/20 08:54:34;;;;;;;7.20;1.70;;;13.00;99.90;;;;;;5073239;28;20173;-75
2022/09/20 08:57:15;;;;;;;7.28;1.58;;;13.10;99.90;;;;;;5074145;28;20189;-75
2022/09/20 08:59:41;;;;;;;5.10;1.50;;;13.10;99.90;;;;;;5072760;28;20220;-75
2022/09/20 09:02:18;;;;;;;8.43;1.80;;;13.30;99.90;;;;;;5074088;28;20209;-75
2022/09/20 09:04:45;;;;;;;7.45;1.77;;;13.30;99.90;;;;;;5072629;28;20201;-75
2022/09/20 09:07:18;;;;;;;7.57;1.65;;;13.30;99.90;;;;;;5074213;28;20196;-75
2022/09/20 09:09:47;;;;;;;6.60;1.75;;;13.60;99.90;;;;;;5073161;28;20176;-75
2022/09/20 09:12:28;;;;;;;6.38;1.70;;;13.90;99.90;;;;;;5072710;28;20572;-75
2022/09/20 09:15:22;;;;;;;5.85;1.70;;;14.10;99.90;;;;;;5073761;28;20181;-75
2022/09/20 09:17:47;;;;;;;4.68;1.50;;;14.40;99.90;;;;;;5073827;28;20204;-75
